sensor_id;sensor_type;location;lat;lon;timestamp;pressure;altitude;pressure_sealevel;temperature;humidity
19797;BME280;10058;57.654;12.044;2024-01-06T00:01:19;101080.78;;;-6.63;100.00
19797;BME280;10058;57.654;12.044;2024-01-06T00:03:44;101081.38;;;-6.57;100.00
19797;BME280;10058;57.654;12.044;2024-01-06T00:06:13;101085.94;;;-6.46;100.00
19797;BME280;10058;57.654;12.044;2024-01-06T00:08:38;101077.47;;;-6.62;100.00
19797;BME280;10058;57.654;12.044;2024-01-06T00:11:04;101089.59;;;-6.44;100.00
19797;BME280;10058;57.654;12.044;2024-01-06T00:13:29;101097.41;;;-6.68;100.00
19797;BME280;10058;57.654;12.044;2024-01-06T00:15:54;101101.03;;;-6.66;100.00
19797;BME280;10058;57.654;12.044;2024-01-06T00:18:19;101103.19;;;-6.62;100.00
19797;BME280;10058;57.654;12.044;2024-01-06T00:20:45;101111.28;;;-6.83;100.00
19797;BME280;10058;57.654;12.044;2024-01-06T00:23:10;101113.06;;;-6.91;100.00
19797;BME280;10058;57.654;12.044;2024-01-06T00:25:35;101112.53;;;-6.54;100.00
19797;BME280;10058;57.654;12.044;2024-01-06T00:28:00;101112.53;;;-6.71;100.00
19797;BME280;10058;57.654;12.044;2024-01-06T00:30:25;101122.38;;;-6.58;100.00
19797;BME280;10058;57.654;12.044;2024-01-06T00:32:50;101120.50;;;-6.85;100.00
19797;BME280;10058;57.654;12.044;2024-01-06T00:35:16;101137.31;;;-6.80;100.00
19797;BME280;10058;57.654;12.044;2024-01-06T00:37:41;101130.06;;;-6.67;100.00
19797;BME280;10058;57.654;12.044;2024-01-06T00:40:06;101131.28;;;-6.55;100.00
19797;BME280;10058;57.654;12.044;2024-01-06T00:42:32;101134.34;;;-6.42;100.00
19797;BME280;10058;57.654;12.044;2024-01-06T00:44:57;101133.13;;;-6.54;100.00
19797;BME280;10058;57.654;12.044;2024-01-06T00:47:22;101146.38;;;-6.75;100.00
19797;BME280;10058;57.654;12.044;2024-01-06T00:49:49;101140.66;;;-6.64;100.00
19797;BME280;10058;57.654;12.044;2024-01-06T00:52:14;101136.41;;;-6.81;100.00
19797;BME280;10058;57.654;12.044;2024-01-06T00:54:39;101140.59;;;-6.90;100.00
19797;BME280;10058;57.654;12.044;2024-01-06T00:57:05;101147.22;;;-7.00;100.00
19797;BME280;10058;57.654;12.044;2024-01-06T00:59:30;101149.34;;;-6.96;100.00
19797;BME280;10058;57.654;12.044;2024-01-06T01:01:55;101149.63;;;-7.11;100.00
19797;BME280;10058;57.654;12.044;2024-01-06T01:04:20;101163.97;;;-7.37;100.00
19797;BME280;10058;57.654;12.044;2024-01-06T01:06:45;101159.66;;;-6.88;100.00
19797;BME280;10058;57.654;12.044;2024-01-06T01:09:11;101160.81;;;-7.02;100.00
19797;BME280;10058;57.654;12.044;2024-01-06T01:11:38;101161.66;;;-7.18;100.00
19797;BME280;10058;57.654;12.044;2024-01-06T01:14:03;101171.25;;;-7.33;100.00
19797;BME280;10058;57.654;12.044;2024-01-06T01:16:28;101171.03;;;-7.19;100.00
19797;BME280;10058;57.654;12.044;2024-01-06T01:18:54;101172.19;;;-7.24;100.00
19797;BME280;10058;57.654;12.044;2024-01-06T01:21:19;101175.41;;;-7.91;100.00
19797;BME280;10058;57.654;12.044;2024-01-06T01:23:45;101170.50;;;-7.56;100.00
19797;BME280;10058;57.654;12.044;2024-01-06T01:26:10;101164.25;;;-7.43;100.00
19797;BME280;10058;57.654;12.044;2024-01-06T01:28:35;101163.63;;;-7.49;100.00
19797;BME280;10058;57.654;12.044;2024-01-06T01:31:01;101161.75;;;-7.58;100.00
19797;BME280;10058;57.654;12.044;2024-01-06T01:33:26;101156.78;;;-7.24;100.00
19797;BME280;10058;57.654;12.044;2024-01-06T01:35:51;101162.00;;;-7.07;100.00
19797;BME280;10058;57.654;12.044;2024-01-06T01:38:16;101163.50;;;-7.09;100.00
19797;BME280;10058;57.654;12.044;2024-01-06T01:40:41;101166.72;;;-7.27;100.00
19797;BME280;10058;57.654;12.044;2024-01-06T01:43:15;101176.31;;;-7.17;100.00
19797;BME280;10058;57.654;12.044;2024-01-06T01:45:41;101186.34;;;-7.36;100.00
19797;BME280;10058;57.654;12.044;2024-01-06T01:48:06;101193.19;;;-7.52;100.00
19797;BME280;10058;57.654;12.044;2024-01-06T01:50:32;101186.66;;;-7.33;100.00
19797;BME280;10058;57.654;12.044;2024-01-06T01:52:57;101197.78;;;-7.41;100.00
19797;BME280;10058;57.654;12.044;2024-01-06T01:55:22;101187.81;;;-7.14;100.00
19797;BME280;10058;57.654;12.044;2024-01-06T01:57:47;101189.75;;;-7.20;100.00
19797;BME280;10058;57.654;12.044;2024-01-06T02:00:13;101189.97;;;-7.34;100.00
19797;BME280;10058;57.654;12.044;2024-01-06T02:02:38;101196.69;;;-7.19;100.00
19797;BME280;10058;57.654;12.044;2024-01-06T02:05:03;101208.59;;;-7.52;100.00
19797;BME280;10058;57.654;12.044;2024-01-06T02:07:29;101203.56;;;-7.35;100.00
19797;BME280;10058;57.654;12.044;2024-01-06T02:09:55;101202.47;;;-7.13;100.00
19797;BME280;10058;57.654;12.044;2024-01-06T02:12:20;101202.66;;;-7.11;100.00
19797;BME280;10058;57.654;12.044;2024-01-06T02:14:45;101199.78;;;-7.06;100.00
19797;BME280;10058;57.654;12.044;2024-01-06T02:17:10;101201.06;;;-6.93;100.00
19797;BME280;10058;57.654;12.044;2024-01-06T02:19:35;101205.31;;;-7.18;100.00
19797;BME280;10058;57.654;12.044;2024-01-06T02:22:00;101210.84;;;-7.31;100.00
19797;BME280;10058;57.654;12.044;2024-01-06T02:24:26;101214.78;;;-7.26;100.00
19797;BME280;10058;57.654;12.044;2024-01-06T02:26:51;101215.66;;;-7.34;100.00
19797;BME280;10058;57.654;12.044;2024-01-06T02:29:16;101218.97;;;-7.35;100.00
19797;BME280;10058;57.654;12.044;2024-01-06T02:31:41;101210.75;;;-6.82;100.00
19797;BME280;10058;57.654;12.044;2024-01-06T02:34:07;101216.06;;;-7.14;100.00
19797;BME280;10058;57.654;12.044;2024-01-06T02:36:32;101219.06;;;-7.42;100.00
19797;BME280;10058;57.654;12.044;2024-01-06T02:38:57;101229.78;;;-7.46;100.00
19797;BME280;10058;57.654;12.044;2024-01-06T02:41:22;101227.41;;;-7.60;100.00
19797;BME280;10058;57.654;12.044;2024-01-06T02:43:47;101222.78;;;-7.72;100.00
19797;BME280;10058;57.654;12.044;2024-01-06T02:46:13;101227.47;;;-7.92;100.00
19797;BME280;10058;57.654;12.044;2024-01-06T02:48:38;101215.31;;;-7.37;100.00
19797;BME280;10058;57.654;12.044;2024-01-06T02:51:03;101221.13;;;-7.31;100.00
19797;BME280;10058;57.654;12.044;2024-01-06T02:53:28;101221.00;;;-7.48;100.00
19797;BME280;10058;57.654;12.044;2024-01-06T02:55:53;101215.66;;;-7.34;100.00
19797;BME280;10058;57.654;12.044;2024-01-06T02:58:19;101218.00;;;-7.44;100.00
19797;BME280;10058;57.654;12.044;2024-01-06T03:00:44;101215.56;;;-7.51;100.00
19797;BME280;10058;57.654;12.044;2024-01-06T03:03:09;101160.25;;;-7.81;100.00
19797;BME280;10058;57.654;12.044;2024-01-06T03:05:34;101214.09;;;-7.41;100.00
19797;BME280;10058;57.654;12.044;2024-01-06T03:08:01;101214.41;;;-7.38;100.00
19797;BME280;10058;57.654;12.044;2024-01-06T03:10:27;101222.72;;;-7.40;100.00
19797;BME280;10058;57.654;12.044;2024-01-06T03:12:52;101222.28;;;-7.36;100.00
19797;BME280;10058;57.654;12.044;2024-01-06T03:15:17;101232.44;;;-7.53;100.00
19797;BME280;10058;57.654;12.044;2024-01-06T03:17:42;101237.50;;;-7.46;100.00
19797;BME280;10058;57.654;12.044;2024-01-06T03:20:08;101236.16;;;-7.83;100.00
19797;BME280;10058;57.654;12.044;2024-01-06T03:22:34;101246.03;;;-7.54;100.00
19797;BME280;10058;57.654;12.044;2024-01-06T03:24:59;101240.69;;;-7.40;100.00
19797;BME280;10058;57.654;12.044;2024-01-06T03:27:24;101246.13;;;-7.37;100.00
19797;BME280;10058;57.654;12.044;2024-01-06T03:29:49;101249.25;;;-7.24;100.00
19797;BME280;10058;57.654;12.044;2024-01-06T03:32:15;101252.78;;;-7.39;100.00
19797;BME280;10058;57.654;12.044;2024-01-06T03:34:40;101252.78;;;-7.39;100.00
19797;BME280;10058;57.654;12.044;2024-01-06T03:37:05;101264.41;;;-7.58;100.00
19797;BME280;10058;57.654;12.044;2024-01-06T03:39:31;101261.13;;;-7.33;100.00
19797;BME280;10058;57.654;12.044;2024-01-06T03:41:56;101259.72;;;-7.38;100.00
19797;BME280;10058;57.654;12.044;2024-01-06T03:44:21;101258.94;;;-7.21;100.00
19797;BME280;10058;57.654;12.044;2024-01-06T03:46:47;101264.94;;;-7.29;100.00
19797;BME280;10058;57.654;12.044;2024-01-06T03:49:12;101269.56;;;-7.10;100.00
19797;BME280;10058;57.654;12.044;2024-01-06T03:51:37;101271.88;;;-7.68;100.00
19797;BME280;10058;57.654;12.044;2024-01-06T03:54:02;101275.00;;;-7.55;100.00
19797;BME280;10058;57.654;12.044;2024-01-06T03:56:27;101278.06;;;-7.51;100.00
19797;BME280;10058;57.654;12.044;2024-01-06T03:58:52;101272.59;;;-7.54;100.00
19797;BME280;10058;57.654;12.044;2024-01-06T04:01:18;101277.69;;;-7.62;100.00
19797;BME280;10058;57.654;12.044;2024-01-06T04:03:43;101279.94;;;-7.41;100.00
19797;BME280;10058;57.654;12.044;2024-01-06T04:06:08;101276.94;;;-7.37;100.00
19797;BME280;10058;57.654;12.044;2024-01-06T04:08:35;101280.09;;;-7.64;100.00
19797;BME280;10058;57.654;12.044;2024-01-06T04:11:00;101275.13;;;-7.38;100.00
19797;BME280;10058;57.654;12.044;2024-01-06T04:13:25;101284.25;;;-7.33;100.00
19797;BME280;10058;57.654;12.044;2024-01-06T04:15:51;101280.63;;;-7.51;100.00
19797;BME280;10058;57.654;12.044;2024-01-06T04:18:16;101280.78;;;-7.49;100.00
19797;BME280;10058;57.654;12.044;2024-01-06T04:20:41;101275.47;;;-7.35;100.00
19797;BME280;10058;57.654;12.044;2024-01-06T04:23:06;101280.91;;;-7.32;100.00
19797;BME280;10058;57.654;12.044;2024-01-06T04:25:31;101284.66;;;-7.37;100.00
19797;BME280;10058;57.654;12.044;2024-01-06T04:27:56;101282.16;;;-7.28;100.00
19797;BME280;10058;57.654;12.044;2024-01-06T04:30:22;101288.28;;;-7.35;100.00
19797;BME280;10058;57.654;12.044;2024-01-06T04:32:47;101296.81;;;-7.43;100.00
19797;BME280;10058;57.654;12.044;2024-01-06T04:35:15;101287.56;;;-7.34;100.00
19797;BME280;10058;57.654;12.044;2024-01-06T04:37:40;101293.59;;;-7.33;100.00
19797;BME280;10058;57.654;12.044;2024-01-06T04:40:05;101294.44;;;-7.42;100.00
19797;BME280;10058;57.654;12.044;2024-01-06T04:42:31;101290.88;;;-7.35;100.00
19797;BME280;10058;57.654;12.044;2024-01-06T04:44:56;101294.59;;;-7.40;100.00
19797;BME280;10058;57.654;12.044;2024-01-06T04:47:21;101290.56;;;-7.14;100.00
19797;BME280;10058;57.654;12.044;2024-01-06T04:49:47;101290.78;;;-7.28;100.00
19797;BME280;10058;57.654;12.044;2024-01-06T04:52:12;101281.81;;;-7.07;100.00
19797;BME280;10058;57.654;12.044;2024-01-06T04:54:37;101288.38;;;-7.42;100.00
19797;BME280;10058;57.654;12.044;2024-01-06T04:57:02;101279.72;;;-7.27;100.00
19797;BME280;10058;57.654;12.044;2024-01-06T04:59:29;101290.53;;;-7.38;100.00
19797;BME280;10058;57.654;12.044;2024-01-06T05:01:54;101296.81;;;-7.43;100.00
19797;BME280;10058;57.654;12.044;2024-01-06T05:04:19;101289.38;;;-7.33;100.00
19797;BME280;10058;57.654;12.044;2024-01-06T05:06:45;101297.28;;;-7.23;100.00
19797;BME280;10058;57.654;12.044;2024-01-06T05:09:10;101303.72;;;-7.11;100.00
19797;BME280;10058;57.654;12.044;2024-01-06T05:11:35;101298.25;;;-7.14;100.00
19797;BME280;10058;57.654;12.044;2024-01-06T05:14:00;101300.81;;;-6.89;100.00
19797;BME280;10058;57.654;12.044;2024-01-06T05:16:25;101303.28;;;-6.82;100.00
19797;BME280;10058;57.654;12.044;2024-01-06T05:18:51;101299.69;;;-7.24;100.00
19797;BME280;10058;57.654;12.044;2024-01-06T05:21:16;101311.53;;;-6.93;100.00
19797;BME280;10058;57.654;12.044;2024-01-06T05:23:42;101306.28;;;-7.35;100.00
19797;BME280;10058;57.654;12.044;2024-01-06T05:26:07;101311.22;;;-6.96;100.00
19797;BME280;10058;57.654;12.044;2024-01-06T05:28:32;101311.16;;;-7.05;100.00
19797;BME280;10058;57.654;12.044;2024-01-06T05:30:57;101310.16;;;-6.98;100.00
19797;BME280;10058;57.654;12.044;2024-01-06T05:33:22;101318.38;;;-6.85;100.00
19797;BME280;10058;57.654;12.044;2024-01-06T05:35:48;101320.53;;;-6.81;100.00
19797;BME280;10058;57.654;12.044;2024-01-06T05:38:13;101326.97;;;-6.93;100.00
19797;BME280;10058;57.654;12.044;2024-01-06T05:40:38;101332.50;;;-7.22;100.00
19797;BME280;10058;57.654;12.044;2024-01-06T05:43:03;101343.50;;;-7.23;100.00
19797;BME280;10058;57.654;12.044;2024-01-06T05:45:29;101343.78;;;-7.44;100.00
19797;BME280;10058;57.654;12.044;2024-01-06T05:47:54;101337.22;;;-7.18;100.00
19797;BME280;10058;57.654;12.044;2024-01-06T05:50:19;101341.97;;;-7.29;100.00
19797;BME280;10058;57.654;12.044;2024-01-06T05:52:44;101336.75;;;-7.38;100.00
19797;BME280;10058;57.654;12.044;2024-01-06T05:55:12;101342.06;;;-7.52;100.00
19797;BME280;10058;57.654;12.044;2024-01-06T05:57:37;101353.66;;;-7.40;100.00
19797;BME280;10058;57.654;12.044;2024-01-06T06:00:02;101357.81;;;-7.49;100.00
19797;BME280;10058;57.654;12.044;2024-01-06T06:02:27;101356.16;;;-7.49;100.00
19797;BME280;10058;57.654;12.044;2024-01-06T06:04:53;101368.06;;;-7.49;100.00
19797;BME280;10058;57.654;12.044;2024-01-06T06:07:18;101363.28;;;-7.46;100.00
19797;BME280;10058;57.654;12.044;2024-01-06T06:09:43;101377.69;;;-7.55;100.00
19797;BME280;10058;57.654;12.044;2024-01-06T06:12:12;101367.06;;;-7.58;100.00
19797;BME280;10058;57.654;12.044;2024-01-06T06:14:37;101377.34;;;-7.58;100.00
19797;BME280;10058;57.654;12.044;2024-01-06T06:17:02;101380.47;;;-7.77;100.00
19797;BME280;10058;57.654;12.044;2024-01-06T06:19:27;101385.13;;;-7.81;100.00
19797;BME280;10058;57.654;12.044;2024-01-06T06:21:53;101387.94;;;-7.87;100.00
19797;BME280;10058;57.654;12.044;2024-01-06T06:24:18;101392.50;;;-7.68;100.00
19797;BME280;10058;57.654;12.044;2024-01-06T06:26:43;101396.97;;;-7.59;100.00
19797;BME280;10058;57.654;12.044;2024-01-06T06:29:09;101404.34;;;-7.46;100.00
19797;BME280;10058;57.654;12.044;2024-01-06T06:31:34;101405.41;;;-7.60;100.00
19797;BME280;10058;57.654;12.044;2024-01-06T06:33:59;101411.22;;;-7.38;100.00
19797;BME280;10058;57.654;12.044;2024-01-06T06:36:24;101407.09;;;-7.45;100.00
19797;BME280;10058;57.654;12.044;2024-01-06T06:38:49;101405.75;;;-7.41;100.00
19797;BME280;10058;57.654;12.044;2024-01-06T06:41:15;101415.44;;;-7.54;100.00
19797;BME280;10058;57.654;12.044;2024-01-06T06:43:41;101418.16;;;-7.53;100.00
19797;BME280;10058;57.654;12.044;2024-01-06T06:46:06;101421.72;;;-7.59;100.00
19797;BME280;10058;57.654;12.044;2024-01-06T06:48:31;101436.19;;;-7.76;100.00
19797;BME280;10058;57.654;12.044;2024-01-06T06:50:57;101434.84;;;-7.88;100.00
19797;BME280;10058;57.654;12.044;2024-01-06T06:53:22;101446.19;;;-7.86;100.00
19797;BME280;10058;57.654;12.044;2024-01-06T06:55:47;101452.13;;;-7.94;100.00
19797;BME280;10058;57.654;12.044;2024-01-06T06:58:12;101458.00;;;-7.95;100.00
19797;BME280;10058;57.654;12.044;2024-01-06T07:00:38;101461.72;;;-8.00;100.00
19797;BME280;10058;57.654;12.044;2024-01-06T07:03:03;101461.38;;;-8.03;100.00
19797;BME280;10058;57.654;12.044;2024-01-06T07:05:29;101458.72;;;-7.96;100.00
19797;BME280;10058;57.654;12.044;2024-01-06T07:07:54;101461.16;;;-7.97;100.00
19797;BME280;10058;57.654;12.044;2024-01-06T07:10:20;101472.00;;;-8.00;100.00
19797;BME280;10058;57.654;12.044;2024-01-06T07:12:45;101470.72;;;-8.03;100.00
19797;BME280;10058;57.654;12.044;2024-01-06T07:15:10;101477.00;;;-8.09;100.00
19797;BME280;10058;57.654;12.044;2024-01-06T07:17:36;101474.00;;;-7.97;100.00
19797;BME280;10058;57.654;12.044;2024-01-06T07:20:03;101478.81;;;-7.85;100.00
19797;BME280;10058;57.654;12.044;2024-01-06T07:22:29;101479.94;;;-7.90;100.00
19797;BME280;10058;57.654;12.044;2024-01-06T07:24:54;101485.91;;;-7.98;100.00
19797;BME280;10058;57.654;12.044;2024-01-06T07:27:19;101488.72;;;-7.88;100.00
19797;BME280;10058;57.654;12.044;2024-01-06T07:29:44;101483.34;;;-7.98;100.00
19797;BME280;10058;57.654;12.044;2024-01-06T07:32:10;101485.78;;;-7.84;100.00
19797;BME280;10058;57.654;12.044;2024-01-06T07:34:35;101490.91;;;-7.84;100.00
19797;BME280;10058;57.654;12.044;2024-01-06T07:37:00;101497.84;;;-7.83;100.00
19797;BME280;10058;57.654;12.044;2024-01-06T07:39:25;101503.44;;;-7.94;100.00
19797;BME280;10058;57.654;12.044;2024-01-06T07:41:51;101506.41;;;-7.98;100.00
19797;BME280;10058;57.654;12.044;2024-01-06T07:44:16;101515.72;;;-8.14;100.00
19797;BME280;10058;57.654;12.044;2024-01-06T07:46:47;101517.28;;;-8.08;100.00
19797;BME280;10058;57.654;12.044;2024-01-06T07:49:12;101532.16;;;-7.89;100.00
19797;BME280;10058;57.654;12.044;2024-01-06T07:51:37;101528.88;;;-7.88;100.00
19797;BME280;10058;57.654;12.044;2024-01-06T07:54:03;101540.56;;;-8.13;100.00
19797;BME280;10058;57.654;12.044;2024-01-06T07:56:30;101552.00;;;-8.18;100.00
19797;BME280;10058;57.654;12.044;2024-01-06T07:58:55;101555.41;;;-8.11;100.00
19797;BME280;10058;57.654;12.044;2024-01-06T08:01:20;101561.81;;;-8.07;100.00
19797;BME280;10058;57.654;12.044;2024-01-06T08:03:46;101554.94;;;-8.22;100.00
19797;BME280;10058;57.654;12.044;2024-01-06T08:06:11;101566.00;;;-8.08;100.00
19797;BME280;10058;57.654;12.044;2024-01-06T08:08:36;101555.53;;;-8.02;100.00
19797;BME280;10058;57.654;12.044;2024-01-06T08:11:01;101564.25;;;-7.93;100.00
19797;BME280;10058;57.654;12.044;2024-01-06T08:13:26;101560.97;;;-7.92;100.00
19797;BME280;10058;57.654;12.044;2024-01-06T08:15:52;101572.75;;;-8.01;100.00
19797;BME280;10058;57.654;12.044;2024-01-06T08:18:17;101573.53;;;-8.09;100.00
19797;BME280;10058;57.654;12.044;2024-01-06T08:20:43;101571.03;;;-7.93;100.00
19797;BME280;10058;57.654;12.044;2024-01-06T08:23:08;101571.94;;;-7.93;100.00
19797;BME280;10058;57.654;12.044;2024-01-06T08:25:33;101570.19;;;-8.01;100.00
19797;BME280;10058;57.654;12.044;2024-01-06T08:27:58;101579.72;;;-7.77;100.00
19797;BME280;10058;57.654;12.044;2024-01-06T08:30:24;101582.97;;;-7.48;100.00
19797;BME280;10058;57.654;12.044;2024-01-06T08:32:49;101587.59;;;-7.76;100.00
19797;BME280;10058;57.654;12.044;2024-01-06T08:35:14;101583.38;;;-7.29;100.00
19797;BME280;10058;57.654;12.044;2024-01-06T08:37:41;101583.84;;;-7.25;100.00
19797;BME280;10058;57.654;12.044;2024-01-06T08:40:07;101587.69;;;-7.44;100.00
19797;BME280;10058;57.654;12.044;2024-01-06T08:42:32;101599.63;;;-7.67;100.00
19797;BME280;10058;57.654;12.044;2024-01-06T08:44:57;101590.03;;;-7.61;100.00
19797;BME280;10058;57.654;12.044;2024-01-06T08:47:23;101599.13;;;-7.49;100.00
19797;BME280;10058;57.654;12.044;2024-01-06T08:49:48;101598.78;;;-7.29;100.00
19797;BME280;10058;57.654;12.044;2024-01-06T08:52:13;101594.25;;;-7.39;100.00
19797;BME280;10058;57.654;12.044;2024-01-06T08:54:38;101588.44;;;-7.07;100.00
19797;BME280;10058;57.654;12.044;2024-01-06T08:57:03;101596.47;;;-7.04;100.00
19797;BME280;10058;57.654;12.044;2024-01-06T08:59:29;101599.53;;;-7.15;100.00
19797;BME280;10058;57.654;12.044;2024-01-06T09:01:54;101605.50;;;-7.07;100.00
19797;BME280;10058;57.654;12.044;2024-01-06T09:04:19;101606.19;;;-6.85;100.00
19797;BME280;10058;57.654;12.044;2024-01-06T09:06:44;101604.47;;;-6.78;100.00
19797;BME280;10058;57.654;12.044;2024-01-06T09:09:11;101595.91;;;-6.54;100.00
19797;BME280;10058;57.654;12.044;2024-01-06T09:11:37;101610.69;;;-6.60;100.00
19797;BME280;10058;57.654;12.044;2024-01-06T09:14:02;101603.13;;;-6.43;100.00
19797;BME280;10058;57.654;12.044;2024-01-06T09:16:27;101612.97;;;-6.39;100.00
19797;BME280;10058;57.654;12.044;2024-01-06T09:18:52;101619.66;;;-6.41;100.00
19797;BME280;10058;57.654;12.044;2024-01-06T09:21:17;101615.66;;;-6.46;100.00
19797;BME280;10058;57.654;12.044;2024-01-06T09:23:43;101626.28;;;-6.43;100.00
19797;BME280;10058;57.654;12.044;2024-01-06T09:26:08;101618.47;;;-6.36;100.00
19797;BME280;10058;57.654;12.044;2024-01-06T09:28:33;101624.78;;;-6.41;100.00
19797;BME280;10058;57.654;12.044;2024-01-06T09:30:58;101630.56;;;-6.35;100.00
19797;BME280;10058;57.654;12.044;2024-01-06T09:33:23;101628.00;;;-6.35;100.00
19797;BME280;10058;57.654;12.044;2024-01-06T09:35:48;101633.91;;;-6.36;100.00
19797;BME280;10058;57.654;12.044;2024-01-06T09:38:14;101630.31;;;-6.29;100.00
19797;BME280;10058;57.654;12.044;2024-01-06T09:40:41;101637.88;;;-6.30;100.00
19797;BME280;10058;57.654;12.044;2024-01-06T09:43:06;101638.28;;;-6.19;100.00
19797;BME280;10058;57.654;12.044;2024-01-06T09:45:32;101649.44;;;-6.43;100.00
19797;BME280;10058;57.654;12.044;2024-01-06T09:47:59;101641.41;;;-6.06;100.00
19797;BME280;10058;57.654;12.044;2024-01-06T09:50:26;101647.16;;;-6.08;100.00
19797;BME280;10058;57.654;12.044;2024-01-06T09:52:51;101648.13;;;-5.99;100.00
19797;BME280;10058;57.654;12.044;2024-01-06T09:55:25;101648.66;;;-6.10;100.00
19797;BME280;10058;57.654;12.044;2024-01-06T09:57:52;101660.56;;;-5.95;100.00
19797;BME280;10058;57.654;12.044;2024-01-06T10:00:17;101654.84;;;-5.84;100.00
19797;BME280;10058;57.654;12.044;2024-01-06T10:02:43;101657.97;;;-5.71;100.00
19797;BME280;10058;57.654;12.044;2024-01-06T10:05:08;101657.97;;;-5.71;100.00
19797;BME280;10058;57.654;12.044;2024-01-06T10:07:35;101658.50;;;-5.33;100.00
19797;BME280;10058;57.654;12.044;2024-01-06T10:10:00;101652.81;;;-5.46;100.00
19797;BME280;10058;57.654;12.044;2024-01-06T10:12:25;101665.56;;;-5.72;100.00
19797;BME280;10058;57.654;12.044;2024-01-06T10:14:51;101658.97;;;-5.53;100.00
19797;BME280;10058;57.654;12.044;2024-01-06T10:17:16;101673.34;;;-5.39;100.00
19797;BME280;10058;57.654;12.044;2024-01-06T10:19:44;101661.56;;;-5.29;100.00
19797;BME280;10058;57.654;12.044;2024-01-06T10:22:10;101668.56;;;-5.19;100.00
19797;BME280;10058;57.654;12.044;2024-01-06T10:24:36;101670.47;;;-5.34;100.00
19797;BME280;10058;57.654;12.044;2024-01-06T10:27:02;101683.06;;;-5.28;100.00
19797;BME280;10058;57.654;12.044;2024-01-06T10:29:27;101683.06;;;-5.28;100.00
19797;BME280;10058;57.654;12.044;2024-01-06T10:31:52;101678.56;;;-5.22;100.00
19797;BME280;10058;57.654;12.044;2024-01-06T10:34:18;101676.09;;;-5.29;100.00
19797;BME280;10058;57.654;12.044;2024-01-06T10:36:44;101682.44;;;-5.34;100.00
19797;BME280;10058;57.654;12.044;2024-01-06T10:39:09;101671.69;;;-5.06;100.00
19797;BME280;10058;57.654;12.044;2024-01-06T10:41:34;101678.66;;;-4.96;100.00
19797;BME280;10058;57.654;12.044;2024-01-06T10:44:00;101675.44;;;-5.11;100.00
19797;BME280;10058;57.654;12.044;2024-01-06T10:46:26;101681.97;;;-5.06;100.00
19797;BME280;10058;57.654;12.044;2024-01-06T10:48:52;101687.31;;;-4.96;100.00
19797;BME280;10058;57.654;12.044;2024-01-06T10:51:20;101682.38;;;-4.85;100.00
19797;BME280;10058;57.654;12.044;2024-01-06T10:53:46;101683.81;;;-5.05;100.00
19797;BME280;10058;57.654;12.044;2024-01-06T10:56:12;101691.78;;;-4.77;100.00
19797;BME280;10058;57.654;12.044;2024-01-06T10:58:39;101685.88;;;-4.76;100.00
19797;BME280;10058;57.654;12.044;2024-01-06T11:01:11;101686.94;;;-4.74;100.00
19797;BME280;10058;57.654;12.044;2024-01-06T11:03:37;101685.00;;;-4.60;100.00
19797;BME280;10058;57.654;12.044;2024-01-06T11:06:06;101681.28;;;-4.37;100.00
19797;BME280;10058;57.654;12.044;2024-01-06T11:08:33;101685.38;;;-4.31;100.00
19797;BME280;10058;57.654;12.044;2024-01-06T11:11:00;101690.09;;;-4.35;100.00
19797;BME280;10058;57.654;12.044;2024-01-06T11:13:26;101692.00;;;-4.50;100.00
19797;BME280;10058;57.654;12.044;2024-01-06T11:15:52;101692.81;;;-4.34;100.00
19797;BME280;10058;57.654;12.044;2024-01-06T11:18:36;101696.41;;;-4.49;100.00
19797;BME280;10058;57.654;12.044;2024-01-06T11:21:18;101694.63;;;-4.15;100.00
19797;BME280;10058;57.654;12.044;2024-01-06T11:24:03;101691.56;;;-4.46;100.00
19797;BME280;10058;57.654;12.044;2024-01-06T11:26:29;101690.88;;;-4.19;100.00
19797;BME280;10058;57.654;12.044;2024-01-06T11:28:55;101693.38;;;-4.45;100.00
19797;BME280;10058;57.654;12.044;2024-01-06T11:31:22;101700.09;;;-4.30;100.00
19797;BME280;10058;57.654;12.044;2024-01-06T11:33:48;101702.66;;;-4.30;100.00
19797;BME280;10058;57.654;12.044;2024-01-06T11:36:16;101697.69;;;-4.11;100.00
19797;BME280;10058;57.654;12.044;2024-01-06T11:38:41;101701.91;;;-4.29;100.00
19797;BME280;10058;57.654;12.044;2024-01-06T11:41:10;101706.44;;;-4.43;100.00
19797;BME280;10058;57.654;12.044;2024-01-06T11:43:37;101699.13;;;-4.56;100.00
19797;BME280;10058;57.654;12.044;2024-01-06T11:46:02;101707.69;;;-4.81;100.00
19797;BME280;10058;57.654;12.044;2024-01-06T11:48:31;101702.84;;;-4.78;100.00
19797;BME280;10058;57.654;12.044;2024-01-06T11:50:58;101694.31;;;-4.53;100.00
19797;BME280;10058;57.654;12.044;2024-01-06T11:53:23;101701.56;;;-4.49;100.00
19797;BME280;10058;57.654;12.044;2024-01-06T11:55:51;101692.22;;;-4.23;100.00
19797;BME280;10058;57.654;12.044;2024-01-06T11:58:16;101685.84;;;-3.92;100.00
19797;BME280;10058;57.654;12.044;2024-01-06T12:00:42;101689.78;;;-4.12;100.00
19797;BME280;10058;57.654;12.044;2024-01-06T12:03:07;101687.06;;;-3.88;100.00
19797;BME280;10058;57.654;12.044;2024-01-06T12:05:32;101687.81;;;-4.06;100.00
19797;BME280;10058;57.654;12.044;2024-01-06T12:07:58;101689.53;;;-3.81;100.00
19797;BME280;10058;57.654;12.044;2024-01-06T12:10:24;101687.84;;;-3.89;100.00
19797;BME280;10058;57.654;12.044;2024-01-06T12:13:00;101689.78;;;-3.78;100.00
19797;BME280;10058;57.654;12.044;2024-01-06T12:15:25;101694.66;;;-3.72;100.00
19797;BME280;10058;57.654;12.044;2024-01-06T12:17:51;101707.72;;;-3.54;100.00
19797;BME280;10058;57.654;12.044;2024-01-06T12:20:17;101698.59;;;-3.59;100.00
19797;BME280;10058;57.654;12.044;2024-01-06T12:22:42;101705.59;;;-4.09;100.00